Time;durP1;ratioP1;P1;durP2;ratioP2;P2;SDS_P1;SDS_P2;PMS_P1;PMS_P2;Temp;Humidity;BMP_temperature;BMP_pressure;BME280_temperature;BME280_humidity;BME280_pressure;Samples;Min_cycle;Max_cycle;Signal;HPM_P1;HPM_P2
2023/01/02 00:00:51;;;;;;;;;6.67;5.00;;;;;16.26;64.58;100687.59;2112868;27;46835;-62
2023/01/02 00:01:52;;;;;;;;;4.00;4.00;;;;;16.25;63.84;100684.06;2112716;27;45758;-62
2023/01/02 00:02:52;;;;;;;;;3.67;3.67;;;;;16.24;64.54;100689.50;2113244;27;46941;-62
2023/01/02 00:03:55;;;;;;;;;6.00;5.00;;;;;16.24;64.17;100687.69;2105572;27;46473;-62
2023/01/02 00:04:55;;;;;;;;;8.00;6.00;;;;;16.24;64.70;100684.13;2114438;27;46747;-62
2023/01/02 00:05:56;;;;;;;;;5.67;5.00;;;;;16.21;64.53;100679.78;2114151;27;47083;-63
2023/01/02 00:06:56;;;;;;;;;8.00;6.33;;;;;16.23;64.72;100687.75;2111006;27;46357;-61
2023/01/02 00:07:57;;;;;;;;;6.00;5.00;;;;;16.22;64.67;100678.00;2106649;27;46840;-62
2023/01/02 00:08:57;;;;;;;;;7.33;6.00;;;;;16.22;64.64;100681.53;2105239;28;46740;-63
2023/01/02 00:09:57;;;;;;;;;3.00;3.00;;;;;16.23;64.96;100685.06;2105293;28;46741;-62
2023/01/02 00:10:58;;;;;;;;;3.00;3.00;;;;;16.23;64.68;100685.94;2114537;27;45753;-61
2023/01/02 00:11:58;;;;;;;;;5.67;4.33;;;;;16.22;64.73;100697.59;2114289;27;45985;-62
2023/01/02 00:12:58;;;;;;;;;5.67;5.67;;;;;16.21;64.86;100695.88;2114646;27;46690;-61
2023/01/02 00:13:59;;;;;;;;;4.33;4.33;;;;;16.19;65.09;100697.75;2106080;27;45721;-64
2023/01/02 00:14:59;;;;;;;;;6.67;6.00;;;;;16.18;65.16;100687.97;2109882;27;46599;-62
2023/01/02 00:15:59;;;;;;;;;6.00;6.00;;;;;16.18;64.71;100686.16;2114566;27;46282;-62
2023/01/02 00:17:00;;;;;;;;;3.00;3.00;;;;;16.19;65.00;100689.72;2108470;27;46621;-62
2023/01/02 00:18:00;;;;;;;;;5.67;5.00;;;;;16.19;64.97;100689.72;2106750;27;45850;-62
2023/01/02 00:19:00;;;;;;;;;6.33;5.67;;;;;16.18;65.25;100688.84;2105958;28;46563;-62
2023/01/02 00:20:01;;;;;;;;;4.00;4.00;;;;;16.18;65.25;100699.56;2110731;27;46320;-62
2023/01/02 00:21:03;;;;;;;;;3.00;3.00;;;;;16.19;65.06;100695.06;2113237;27;46947;-63
2023/01/02 00:22:03;;;;;;;;;4.50;4.00;;;;;16.19;65.08;100695.94;2105689;28;46881;-62
2023/01/02 00:25:19;;;;;;;;;3.00;3.00;;;;;16.19;64.81;100703.09;2110427;27;46610;-61
2023/01/02 00:26:19;;;;;;;;;3.00;3.00;;;;;16.18;64.56;100704.03;2105107;28;47580;-61
2023/01/02 00:27:19;;;;;;;;;5.00;3.67;;;;;16.15;65.51;100707.72;2105114;28;46703;-62
2023/01/02 00:28:20;;;;;;;;;6.00;5.33;;;;;16.16;65.11;100717.50;2115007;27;46521;-62
2023/01/02 00:29:20;;;;;;;;;4.33;4.33;;;;;16.15;65.36;100712.22;2113937;27;46969;-62
2023/01/02 00:30:20;;;;;;;;;6.00;4.67;;;;;16.13;65.39;100698.91;2106037;27;47081;-61
2023/01/02 00:31:21;;;;;;;;;4.33;4.00;;;;;16.14;65.27;100708.66;2109455;27;46677;-62
2023/01/02 00:32:21;;;;;;;;;2.00;2.00;;;;;16.15;65.65;100710.41;2113956;27;46323;-62
2023/01/02 00:33:22;;;;;;;;;2.67;2.67;;;;;16.14;65.27;100706.00;2113648;27;47051;-62
2023/01/02 00:34:23;;;;;;;;;4.75;3.00;;;;;16.14;65.77;100707.81;2112416;27;47107;-63
2023/01/02 00:35:23;;;;;;;;;2.67;2.67;;;;;16.15;65.51;100717.56;2114266;27;46766;-62
2023/01/02 00:36:25;;;;;;;;;4.00;4.00;;;;;16.15;65.67;100709.53;2099604;28;45771;-63
2023/01/02 00:37:25;;;;;;;;;4.25;3.75;;;;;16.14;65.66;100713.16;2097856;27;46438;-61
2023/01/02 00:38:26;;;;;;;;;4.00;3.33;;;;;16.14;65.51;100708.66;2113097;27;46218;-62
2023/01/02 00:39:27;;;;;;;;;2.00;2.00;;;;;16.13;65.92;100706.94;2113496;27;46395;-64
2023/01/02 00:40:27;;;;;;;;;3.50;3.00;;;;;16.14;65.77;100700.63;2113416;27;46751;-63
2023/01/02 00:41:27;;;;;;;;;2.33;2.33;;;;;16.15;65.99;100706.88;2105786;27;46809;-63
2023/01/02 00:42:28;;;;;;;;;3.67;3.67;;;;;16.13;66.08;100698.91;2104923;27;46496;-62
2023/01/02 00:43:29;;;;;;;;;4.00;3.00;;;;;16.13;66.35;100695.31;2096763;28;46878;-62
2023/01/02 00:44:29;;;;;;;;;6.00;5.00;;;;;16.11;66.00;100707.91;2096427;28;46266;-63
2023/01/02 00:45:29;;;;;;;;;2.00;2.00;;;;;16.09;66.16;100710.66;2105117;28;45542;-60
2023/01/02 00:46:30;;;;;;;;;4.00;2.00;;;;;16.07;66.42;100701.84;2104983;28;46288;-62
2023/01/02 00:47:30;;;;;;;;;4.33;4.00;;;;;16.06;65.68;100702.78;2109522;27;45457;-62
2023/01/02 00:48:30;;;;;;;;;3.33;3.33;;;;;16.03;66.42;100707.41;2112952;27;46480;-61
2023/01/02 00:49:30;;;;;;;;;2.00;1.33;;;;;16.03;66.70;100704.72;2105685;27;46609;-63
2023/01/02 00:50:31;;;;;;;;;4.33;3.33;;;;;16.01;66.73;100710.16;2087442;28;45807;-63
2023/01/02 00:51:31;;;;;;;;;2.00;2.00;;;;;16.01;67.02;100702.13;2079928;28;46019;-63
2023/01/02 00:52:31;;;;;;;;;3.33;3.33;;;;;16.01;66.49;100709.28;2110564;27;46570;-61
2023/01/02 00:53:32;;;;;;;;;3.00;3.00;;;;;16.00;66.32;100708.38;2111581;27;45759;-61
2023/01/02 00:54:32;;;;;;;;;3.00;2.67;;;;;15.98;66.31;100706.72;2105291;28;46433;-62
2023/01/02 00:55:32;;;;;;;;;3.00;3.00;;;;;15.94;66.77;100700.66;2106136;27;46538;-61
2023/01/02 00:56:33;;;;;;;;;5.33;4.00;;;;;15.95;66.82;100699.72;2097065;27;46223;-61
2023/01/02 00:57:33;;;;;;;;;4.67;4.33;;;;;15.94;66.80;100708.66;2104839;28;46351;-61
2023/01/02 00:58:34;;;;;;;;;3.00;3.00;;;;;15.93;67.13;100701.59;2103811;28;46554;-61
2023/01/02 00:59:34;;;;;;;;;4.00;4.00;;;;;15.92;67.36;100707.00;2104750;28;46853;-62
2023/01/02 01:00:34;;;;;;;;;5.00;4.00;;;;;15.89;67.44;100705.34;2104846;28;47108;-62
2023/01/02 01:01:35;;;;;;;;;1.67;1.67;;;;;15.88;67.29;100698.25;2104661;28;46292;-61
2023/01/02 01:02:35;;;;;;;;;4.33;3.33;;;;;15.86;67.36;100705.44;2105072;28;46347;-62
2023/01/02 01:03:35;;;;;;;;;2.67;2.67;;;;;15.85;67.28;100699.22;2107893;27;46282;-62
2023/01/02 01:04:36;;;;;;;;;4.00;4.00;;;;;15.84;68.01;100708.19;2113156;27;46836;-62
2023/01/02 01:05:39;;;;;;;;;5.67;5.67;;;;;15.85;68.00;100701.91;2103825;28;46326;-62
2023/01/02 01:06:39;;;;;;;;;3.00;2.50;;;;;15.85;67.23;100711.75;2107140;27;46620;-61
2023/01/02 01:07:40;;;;;;;;;6.00;6.00;;;;;15.83;67.21;100706.47;2113495;27;46709;-62
2023/01/02 01:08:40;;;;;;;;;5.33;5.33;;;;;15.83;67.52;100706.47;2106358;27;45038;-62
2023/01/02 01:09:40;;;;;;;;;3.00;3.00;;;;;15.83;68.01;100702.91;2105796;27;46897;-61
2023/01/02 01:10:41;;;;;;;;;9.33;7.00;;;;;15.82;67.48;100695.81;2105867;28;46165;-61
2023/01/02 01:11:41;;;;;;;;;8.00;7.00;;;;;15.82;67.67;100702.03;2110138;27;46805;-62
2023/01/02 01:12:42;;;;;;;;;8.67;8.00;;;;;15.82;68.08;100703.84;2104538;28;46242;-62
2023/01/02 01:13:43;;;;;;;;;11.00;10.67;;;;;15.82;67.84;100704.72;2104024;28;46759;-61
2023/01/02 01:14:43;;;;;;;;;8.50;5.75;;;;;15.82;68.10;100704.72;2110006;27;47278;-62
2023/01/02 01:15:43;;;;;;;;;9.67;9.67;;;;;15.82;67.95;100702.03;2104287;27;46603;-62
2023/01/02 01:16:44;;;;;;;;;8.67;8.67;;;;;15.81;67.67;100707.47;2111378;27;46559;-62
2023/01/02 01:17:44;;;;;;;;;11.00;8.00;;;;;15.80;68.31;100705.72;2114078;27;46745;-63
2023/01/02 01:18:45;;;;;;;;;7.67;7.67;;;;;15.80;67.83;100700.38;2114369;27;46322;-62
2023/01/02 01:19:46;;;;;;;;;10.25;10.25;;;;;15.78;68.40;100702.25;2109316;27;45993;-62
2023/01/02 01:20:46;;;;;;;;;8.33;8.33;;;;;15.78;67.64;100710.28;2106206;28;45532;-62
2023/01/02 01:21:46;;;;;;;;;8.00;8.00;;;;;15.76;68.16;100709.50;2108735;27;46181;-62
2023/01/02 01:22:47;;;;;;;;;11.00;8.00;;;;;15.74;68.00;100709.53;2105454;28;46498;-60
2023/01/02 01:23:53;;;;;;;;;8.00;6.33;;;;;15.73;68.00;100710.47;2105862;28;45906;-62
2023/01/02 01:24:53;;;;;;;;;6.25;6.25;;;;;15.73;68.53;100713.13;2109582;27;45712;-62
2023/01/02 01:25:53;;;;;;;;;7.67;7.67;;;;;15.72;68.77;100716.75;2114209;27;46353;-62
2023/01/02 01:26:54;;;;;;;;;8.33;6.33;;;;;15.73;68.49;100722.97;2113814;27;46548;-62
2023/01/02 01:27:54;;;;;;;;;8.00;8.00;;;;;15.72;68.84;100727.44;2110572;27;46761;-62
2023/01/02 01:28:55;;;;;;;;;6.33;6.33;;;;;15.72;68.89;100732.81;2114240;27;46234;-61
2023/01/02 01:29:56;;;;;;;;;1.00;1.00;;;;;15.72;68.54;100727.44;2112114;27;46381;-63
2023/01/02 01:31:01;;;;;;;;;5.67;5.67;;;;;15.72;68.91;100723.91;2111986;27;46911;-61
2023/01/02 01:32:01;;;;;;;;;5.00;5.00;;;;;15.71;68.99;100731.06;2114728;27;46631;-62
2023/01/02 01:33:02;;;;;;;;;4.33;3.00;;;;;15.71;68.94;100725.72;2108095;27;46288;-62
2023/01/02 01:34:02;;;;;;;;;5.00;4.00;;;;;15.71;68.90;100724.84;2106009;28;46500;-62
2023/01/02 01:35:03;;;;;;;;;2.67;2.67;;;;;15.71;69.33;100732.88;2113219;27;45110;-62
2023/01/02 01:36:09;;;;;;;;;3.33;3.33;;;;;15.71;68.59;100732.88;2100328;28;46067;-62
2023/01/02 01:37:11;;;;;;;;;5.50;5.00;;;;;15.70;68.50;100728.47;2097119;27;47224;-61
2023/01/02 01:38:11;;;;;;;;;3.25;3.25;;;;;15.69;68.81;100726.72;2114445;27;46740;-62
2023/01/02 01:39:11;;;;;;;;;1.33;1.33;;;;;15.69;68.79;100726.72;2110921;27;46594;-62
2023/01/02 01:40:12;;;;;;;;;3.33;2.67;;;;;15.68;68.73;100730.34;2105790;28;46185;-62
2023/01/02 01:41:15;;;;;;;;;5.00;3.00;;;;;15.67;69.24;100720.56;2110440;27;47675;-62
2023/01/02 01:42:16;;;;;;;;;2.75;2.75;;;;;15.67;68.98;100715.22;2112791;27;46915;-62
2023/01/02 01:43:37;;;;;;;;;4.25;4.25;;;;;15.66;68.81;100706.34;2113611;27;47181;-62
2023/01/02 01:44:46;;;;;;;;;3.00;3.00;;;;;15.66;69.07;100714.34;2114002;27;45854;-61
2023/01/02 01:45:46;;;;;;;;;1.25;1.25;;;;;15.66;69.11;100716.16;2114071;27;45913;-62
2023/01/02 01:46:46;;;;;;;;;5.00;4.00;;;;;15.66;69.14;100709.00;2113057;27;46237;-62
2023/01/02 01:47:55;;;;;;;;;2.00;2.00;;;;;15.64;69.24;100721.59;2104811;28;46769;-62
2023/01/02 01:49:27;;;;;;;;;3.00;2.00;;;;;15.61;68.82;100721.69;2104924;27;46758;-61
2023/01/02 01:50:33;;;;;;;;;2.00;2.00;;;;;15.58;69.05;100721.78;2079005;28;45814;-62
2023/01/02 01:51:39;;;;;;;;;2.75;2.00;;;;;15.56;69.43;100719.19;2063573;28;46709;-61
2023/01/02 01:52:46;;;;;;;;;1.75;1.75;;;;;15.56;69.38;100726.34;2075267;28;46595;-62
2023/01/02 01:53:51;;;;;;;;;2.00;2.00;;;;;15.56;69.71;100726.34;2077056;28;46535;-62
2023/01/02 01:54:57;;;;;;;;;3.00;2.25;;;;;15.55;69.45;100728.16;2071314;28;46410;-62
2023/01/02 01:56:03;;;;;;;;;3.50;2.50;;;;;15.54;69.68;100723.72;2071040;28;46649;-62
2023/01/02 01:57:19;;;;;;;;;3.25;3.25;;;;;15.53;69.38;100727.34;2071174;28;46913;-62
2023/01/02 01:58:24;;;;;;;;;3.25;3.00;;;;;15.53;69.42;100739.84;2063002;28;46372;-63
2023/01/02 01:59:26;;;;;;;;;2.50;2.50;;;;;15.54;69.33;100744.25;2062474;28;46624;-61
2023/01/02 02:00:27;;;;;;;;;3.00;3.00;;;;;15.52;69.53;100752.34;2067117;28;46540;-62
2023/01/02 02:01:28;;;;;;;;;2.75;2.75;;;;;15.51;69.21;100753.28;2071762;28;46621;-62
2023/01/02 02:02:30;;;;;;;;;2.33;2.00;;;;;15.50;69.57;100756.00;2070980;28;46217;-62
2023/01/02 02:03:33;;;;;;;;;2.00;0.75;;;;;15.49;69.65;100764.97;2072754;28;46484;-62
2023/01/02 02:04:34;;;;;;;;;1.50;1.50;;;;;15.48;69.51;100753.41;2079496;28;46696;-62
2023/01/02 02:05:35;;;;;;;;;1.33;1.33;;;;;15.48;69.30;100757.88;2065593;28;46611;-62
2023/01/02 02:06:36;;;;;;;;;3.75;2.50;;;;;15.48;70.04;100768.56;2063372;28;46425;-62
2023/01/02 02:07:43;;;;;;;;;2.00;2.00;;;;;15.48;69.33;100777.47;2079163;28;46899;-62
2023/01/02 02:08:57;;;;;;;;;2.00;2.00;;;;;15.46;69.39;100771.31;2074402;28;46496;-62
2023/01/02 02:10:08;;;;;;;;;1.75;1.75;;;;;15.47;69.70;100770.38;2072269;28;47145;-62
2023/01/02 02:11:10;;;;;;;;;4.00;4.00;;;;;15.47;69.77;100775.72;2079195;28;46694;-63
2023/01/02 02:12:11;;;;;;;;;1.75;1.75;;;;;15.47;70.07;100770.38;2073675;28;46789;-62
2023/01/02 02:13:13;;;;;;;;;1.50;1.50;;;;;15.48;70.05;100771.25;2071797;28;45986;-62
2023/01/02 02:14:13;;;;;;;;;2.00;2.00;;;;;15.46;69.39;100771.31;2071014;28;46296;-62
2023/01/02 02:15:19;;;;;;;;;2.00;1.33;;;;;15.46;69.64;100776.66;2071163;28;45875;-61
2023/01/02 02:16:31;;;;;;;;;1.75;1.75;;;;;15.46;70.08;100782.00;2070890;28;46530;-63
2023/01/02 02:18:01;;;;;;;;;3.50;2.00;;;;;15.46;69.53;100783.81;2063185;28;46665;-63
2023/01/02 02:19:39;;;;;;;;;1.75;1.75;;;;;15.45;70.03;100788.28;2063457;28;46671;-61
2023/01/02 02:20:54;;;;;;;;;2.00;2.00;;;;;15.45;70.05;100790.09;2063040;28;46540;-63
2023/01/02 02:21:54;;;;;;;;;1.00;1.00;;;;;15.46;70.43;100791.84;2069140;28;46985;-61
2023/01/02 02:22:57;;;;;;;;;1.33;1.33;;;;;15.46;70.04;100792.72;2071322;28;46498;-62
2023/01/02 02:24:06;;;;;;;;;1.25;1.25;;;;;15.47;70.54;100796.25;2079285;28;46506;-61
2023/01/02 02:25:41;;;;;;;;;1.00;1.00;;;;;15.48;70.61;100788.16;2073291;28;46608;-61
2023/01/02 02:26:52;;;;;;;;;1.00;1.00;;;;;15.49;70.78;100797.06;2054232;28;46641;-62
2023/01/02 02:27:58;;;;;;;;;2.25;1.50;;;;;15.48;70.47;100798.84;2060664;28;45777;-61
2023/01/02 02:29:30;;;;;;;;;2.00;2.00;;;;;15.49;70.41;100805.09;2079207;28;45819;-62
2023/01/02 02:30:39;;;;;;;;;1.75;1.75;;;;;15.47;70.71;100802.47;2083407;28;46080;-61
2023/01/02 02:32:06;;;;;;;;;2.00;2.00;;;;;15.45;70.67;100799.00;2085253;28;46727;-62
2023/01/02 02:33:25;;;;;;;;;2.00;2.00;;;;;15.44;70.24;100791.91;2080836;28;46447;-62
2023/01/02 02:34:37;;;;;;;;;1.75;1.75;;;;;15.43;70.67;100795.50;2081154;28;46847;-61
2023/01/02 02:35:48;;;;;;;;;0.00;0.00;;;;;15.43;70.91;100797.31;2087742;28;46051;-61
2023/01/02 02:36:54;;;;;;;;;1.00;1.00;;;;;15.42;70.79;100796.44;2079192;28;45862;-62
2023/01/02 02:38:03;;;;;;;;;1.00;1.00;;;;;15.40;70.46;100795.66;2083511;28;45928;-62
2023/01/02 02:39:25;;;;;;;;;1.75;0.75;;;;;15.39;70.67;100801.06;2086902;28;47018;-62
2023/01/02 02:40:41;;;;;;;;;1.50;1.50;;;;;15.39;71.14;100804.59;2087411;28;46608;-63
2023/01/02 02:42:08;;;;;;;;;0.25;0.25;;;;;15.40;70.97;100789.44;2062838;28;47479;-62
2023/01/02 02:43:17;;;;;;;;;1.75;1.50;;;;;15.41;71.14;100796.53;2074045;28;46376;-63
2023/01/02 02:44:56;;;;;;;;;2.50;1.50;;;;;15.41;71.67;100794.72;2079116;28;46421;-62
2023/01/02 02:45:56;;;;;;;;;2.25;1.75;;;;;15.42;71.33;100804.47;2079187;28;46321;-61
2023/01/02 02:47:21;;;;;;;;;1.00;1.00;;;;;15.41;71.54;100805.41;2079062;28;46415;-61
2023/01/02 02:48:45;;;;;;;;;2.75;2.75;;;;;15.40;71.58;100806.34;2070766;28;46442;-63
2023/01/02 02:50:03;;;;;;;;;1.75;1.75;;;;;15.40;70.72;100797.44;2073675;28;46654;-62
2023/01/02 02:51:32;;;;;;;;;2.75;2.75;;;;;15.40;71.26;100800.13;2079118;28;45793;-62
2023/01/02 02:52:43;;;;;;;;;1.75;1.75;;;;;15.39;71.38;100799.25;2062845;28;46411;-61
2023/01/02 02:53:52;;;;;;;;;1.75;1.00;;;;;15.37;71.83;100795.75;2062481;28;46285;-61
2023/01/02 02:55:06;;;;;;;;;3.75;1.50;;;;;15.37;72.02;100800.22;2062765;28;47079;-61
2023/01/02 02:56:10;;;;;;;;;2.50;2.50;;;;;15.37;71.77;100794.88;2062912;28;46250;-62
2023/01/02 02:57:14;;;;;;;;;0.00;0.00;;;;;15.35;71.60;100791.41;2062499;28;47409;-61
2023/01/02 02:58:17;;;;;;;;;1.00;1.00;;;;;15.34;71.56;100787.84;2062734;28;46789;-61
2023/01/02 02:59:19;;;;;;;;;1.75;1.25;;;;;15.34;72.03;100789.66;2062815;28;46686;-63
2023/01/02 03:00:22;;;;;;;;;2.75;2.75;;;;;15.34;72.33;100790.53;2062508;28;46059;-62
2023/01/02 03:01:26;;;;;;;;;1.00;1.00;;;;;15.34;72.10;100789.66;2062881;28;46452;-62
2023/01/02 03:02:26;;;;;;;;;2.25;1.50;;;;;15.34;72.25;100785.19;2062412;28;46557;-62
2023/01/02 03:03:26;;;;;;;;;1.00;1.00;;;;;15.34;72.26;100787.84;2056671;28;45120;-61
2023/01/02 03:04:27;;;;;;;;;1.33;1.33;;;;;15.34;72.05;100795.88;2062773;28;46480;-61
2023/01/02 03:05:39;;;;;;;;;1.00;0.00;;;;;15.34;71.92;100792.34;2070833;28;46226;-61
2023/01/02 03:06:52;;;;;;;;;0.25;0.25;;;;;15.34;72.46;100803.91;2073765;28;45586;-62
2023/01/02 03:07:58;;;;;;;;;1.00;1.00;;;;;15.33;72.58;100799.47;2079443;28;45962;-62
2023/01/02 03:09:17;;;;;;;;;1.75;0.75;;;;;15.31;72.01;100794.19;2071034;28;46367;-62
2023/01/02 03:10:43;;;;;;;;;0.50;0.50;;;;;15.32;72.54;100805.75;2070701;28;46971;-63
2023/01/02 03:12:05;;;;;;;;;1.00;1.00;;;;;15.34;72.10;100808.38;2062947;28;45830;-61
2023/01/02 03:13:22;;;;;;;;;2.00;2.00;;;;;15.31;72.19;100799.56;2065462;28;46929;-62
2023/01/02 03:14:31;;;;;;;;;2.75;0.75;;;;;15.31;72.08;100807.56;2070903;28;46705;-62
2023/01/02 03:15:39;;;;;;;;;1.00;1.00;;;;;15.31;72.59;100812.91;2070916;28;46957;-62
2023/01/02 03:16:42;;;;;;;;;1.00;1.00;;;;;15.34;72.49;100811.06;2071437;28;46874;-62
2023/01/02 03:17:48;;;;;;;;;1.00;1.00;;;;;15.31;72.48;100812.91;2070784;28;46398;-62
2023/01/02 03:18:57;;;;;;;;;1.50;0.50;;;;;15.33;72.26;100804.84;2070329;28;46348;-61
2023/01/02 03:20:06;;;;;;;;;2.50;2.50;;;;;15.34;72.23;100803.03;2075592;28;45904;-62
2023/01/02 03:21:14;;;;;;;;;1.00;0.00;;;;;15.34;72.45;100806.56;2076897;28;46308;-62
2023/01/02 03:22:19;;;;;;;;;1.75;1.75;;;;;15.35;72.19;100815.47;2070610;28;47575;-62
2023/01/02 03:23:22;;;;;;;;;0.00;0.00;;;;;15.33;72.44;100802.16;2074824;28;46772;-61
2023/01/02 03:24:24;;;;;;;;;3.00;2.00;;;;;15.32;71.94;100801.28;2078581;28;48574;-61
2023/01/02 03:25:25;;;;;;;;;0.50;0.50;;;;;15.30;71.96;100808.50;2070559;28;46593;-62
2023/01/02 03:26:30;;;;;;;;;1.00;1.00;;;;;15.28;71.66;100796.13;2065883;28;46361;-62
2023/01/02 03:27:35;;;;;;;;;2.25;0.25;;;;;15.24;72.13;100794.50;2070566;28;46332;-61
2023/01/02 03:28:40;;;;;;;;;0.00;0.00;;;;;15.23;71.76;100801.66;2078603;28;46362;-61
2023/01/02 03:29:46;;;;;;;;;1.00;1.00;;;;;15.20;71.51;100798.22;2077335;28;46442;-62
2023/01/02 03:30:51;;;;;;;;;0.00;0.00;;;;;15.18;72.11;100795.63;2093620;28;46327;-61
2023/01/02 03:31:54;;;;;;;;;0.00;0.00;;;;;15.17;71.83;100804.56;2105090;27;47234;-62
2023/01/02 03:33:17;;;;;;;;;2.25;1.00;;;;;15.15;72.01;100805.56;2113495;27;46345;-62
2023/01/02 03:34:23;;;;;;;;;0.25;0.25;;;;;15.13;71.44;100805.63;2112430;27;46696;-62
2023/01/02 03:35:31;;;;;;;;;0.00;0.00;;;;;15.11;71.55;100807.47;2113580;27;46768;-62
2023/01/02 03:36:34;;;;;;;;;0.75;0.75;;;;;15.08;70.94;100812.06;2107444;27;46706;-62
2023/01/02 03:37:38;;;;;;;;;0.00;0.00;;;;;15.05;71.17;100805.06;2106593;27;46320;-62
2023/01/02 03:38:44;;;;;;;;;0.50;0.00;;;;;15.05;71.60;100815.75;2114116;27;46559;-62
2023/01/02 03:39:50;;;;;;;;;0.00;0.00;;;;;15.04;70.97;100815.81;2114013;27;46762;-61
2023/01/02 03:41:04;;;;;;;;;0.00;0.00;;;;;15.02;70.90;100811.41;2114144;27;46919;-62
2023/01/02 03:42:15;;;;;;;;;0.00;0.00;;;;;15.00;70.95;100813.25;2115249;27;46513;-61
2023/01/02 03:43:27;;;;;;;;;0.00;0.00;;;;;15.00;70.96;100815.94;2106515;28;46527;-62
2023/01/02 03:44:40;;;;;;;;;0.00;0.00;;;;;14.99;70.91;100822.22;2112438;27;46790;-62
2023/01/02 03:46:18;;;;;;;;;0.00;0.00;;;;;14.96;70.57;100821.44;2114423;27;46444;-63
2023/01/02 03:47:33;;;;;;;;;0.00;0.00;;;;;14.93;70.32;100824.22;2094050;28;46464;-61
2023/01/02 03:48:42;;;;;;;;;0.00;0.00;;;;;14.90;70.47;100825.22;2089030;28;46354;-62
2023/01/02 03:49:47;;;;;;;;;0.00;0.00;;;;;14.88;70.22;100836.91;2079836;28;46999;-61
2023/01/02 03:50:53;;;;;;;;;0.00;0.00;;;;;14.84;70.27;100830.78;2083170;28;46344;-62
2023/01/02 03:51:53;;;;;;;;;0.00;0.00;;;;;14.84;70.00;100837.91;2080931;28;46077;-63
2023/01/02 03:52:54;;;;;;;;;0.00;0.00;;;;;14.81;70.34;100844.25;2088793;28;46231;-61
2023/01/02 03:53:55;;;;;;;;;0.00;0.00;;;;;14.81;70.76;100841.59;2080325;28;46464;-62
2023/01/02 03:54:58;;;;;;;;;0.00;0.00;;;;;14.81;70.23;100846.94;2079970;28;47027;-62
2023/01/02 03:56:04;;;;;;;;;0.00;0.00;;;;;14.80;70.14;100845.19;2077185;28;47928;-61
2023/01/02 03:57:11;;;;;;;;;0.00;0.00;;;;;14.78;70.53;100841.72;2068243;28;46384;-61
2023/01/02 03:58:27;;;;;;;;;0.00;0.00;;;;;14.76;70.57;100846.25;2081105;28;46064;-61
2023/01/02 04:00:05;;;;;;;;;0.00;0.00;;;;;14.77;70.35;100850.66;2088196;28;46795;-60
2023/01/02 04:01:11;;;;;;;;;0.00;0.00;;;;;14.78;70.44;100851.53;2088573;28;46372;-62
2023/01/02 04:02:37;;;;;;;;;0.00;0.00;;;;;14.78;70.36;100856.88;2088344;28;45560;-61
2023/01/02 04:03:46;;;;;;;;;0.00;0.00;;;;;14.77;70.24;100849.78;2088669;28;46748;-62
2023/01/02 04:04:55;;;;;;;;;0.00;0.00;;;;;14.78;70.48;100852.41;2088538;28;45579;-62
2023/01/02 04:06:04;;;;;;;;;0.50;0.00;;;;;14.79;70.65;100854.13;2080097;28;46837;-62
2023/01/02 04:07:11;;;;;;;;;0.00;0.00;;;;;14.81;70.49;100852.28;2086478;28;46899;-61
2023/01/02 04:08:29;;;;;;;;;0.00;0.00;;;;;14.81;70.75;100856.75;2090244;28;47155;-62
2023/01/02 04:09:32;;;;;;;;;0.00;0.00;;;;;14.81;70.95;100856.75;2097036;28;46847;-61
2023/01/02 04:10:36;;;;;;;;;0.00;0.00;;;;;14.81;70.42;100851.41;2081078;28;47080;-61
2023/01/02 04:11:39;;;;;;;;;0.00;0.00;;;;;14.79;70.40;100856.81;2083752;28;45911;-62
2023/01/02 04:12:43;;;;;;;;;0.00;0.00;;;;;14.79;70.78;100856.81;2088131;28;46655;-61
2023/01/02 04:13:55;;;;;;;;;0.00;0.00;;;;;14.79;70.34;100858.59;2088685;28;46107;-61
2023/01/02 04:15:04;;;;;;;;;0.00;0.00;;;;;14.79;70.92;100856.81;2088114;28;46507;-62
2023/01/02 04:16:09;;;;;;;;;0.00;0.00;;;;;14.81;70.65;100856.75;2088844;28;46332;-61
2023/01/02 04:17:13;;;;;;;;;0.00;0.00;;;;;14.80;70.74;100858.56;2080680;28;46366;-62
2023/01/02 04:18:21;;;;;;;;;0.00;0.00;;;;;14.79;70.91;100847.94;2083765;28;46569;-62
2023/01/02 04:19:30;;;;;;;;;0.00;0.00;;;;;14.78;71.00;100847.06;2080488;28;47534;-62
2023/01/02 04:20:36;;;;;;;;;0.00;0.00;;;;;14.77;70.75;100852.47;2073034;28;46869;-61
2023/01/02 04:21:39;;;;;;;;;0.00;0.00;;;;;14.76;70.17;100853.38;2085085;28;46364;-62
2023/01/02 04:22:48;;;;;;;;;0.00;0.00;;;;;14.75;70.69;100848.97;2088312;28;46961;-62
2023/01/02 04:23:57;;;;;;;;;0.25;0.00;;;;;14.74;70.72;100842.75;2080515;28;46654;-62
2023/01/02 04:25:17;;;;;;;;;0.00;0.00;;;;;14.73;71.16;100852.53;2094538;27;46409;-61
2023/01/02 04:26:27;;;;;;;;;0.00;0.00;;;;;14.73;70.52;100855.22;2112430;27;46461;-62
2023/01/02 04:27:35;;;;;;;;;0.75;0.00;;;;;14.73;70.95;100855.22;2114539;27;46712;-61
2023/01/02 04:28:36;;;;;;;;;0.00;0.00;;;;;14.71;70.88;100861.53;2112807;27;46650;-62
2023/01/02 04:29:36;;;;;;;;;0.00;0.00;;;;;14.70;70.88;100860.69;2112463;27;46748;-62
2023/01/02 04:30:43;;;;;;;;;0.00;0.00;;;;;14.70;70.61;100857.13;2114067;27;46586;-62
2023/01/02 04:31:52;;;;;;;;;0.00;0.00;;;;;14.69;70.76;100860.75;2111363;27;46480;-62
2023/01/02 04:32:56;;;;;;;;;0.00;0.00;;;;;14.66;70.78;100860.84;2113810;27;47109;-62
2023/01/02 04:34:01;;;;;;;;;0.00;0.00;;;;;14.64;70.79;100866.25;2114593;27;46622;-62
2023/01/02 04:35:06;;;;;;;;;0.00;0.00;;;;;14.63;70.92;100869.00;2106398;27;45911;-62
2023/01/02 04:36:10;;;;;;;;;0.00;0.00;;;;;14.62;70.64;100869.91;2106171;27;46926;-62
2023/01/02 04:37:25;;;;;;;;;0.00;0.00;;;;;14.58;70.83;100877.16;2106067;28;46703;-62
2023/01/02 04:38:26;;;;;;;;;0.00;0.00;;;;;14.57;71.07;100866.53;2105993;28;46949;-62
2023/01/02 04:39:27;;;;;;;;;0.00;0.00;;;;;14.55;71.07;100877.25;2106197;27;46215;-62
2023/01/02 04:40:29;;;;;;;;;0.00;0.00;;;;;14.54;71.47;100872.84;2105951;28;46417;-62
2023/01/02 04:41:31;;;;;;;;;0.00;0.00;;;;;14.54;71.00;100875.53;2113352;27;45360;-62
2023/01/02 04:42:32;;;;;;;;;0.00;0.00;;;;;14.55;71.11;100876.38;2112002;27;46401;-61
2023/01/02 04:43:32;;;;;;;;;0.00;0.00;;;;;14.53;70.86;100879.13;2106231;28;46865;-61
2023/01/02 04:44:32;;;;;;;;;0.00;0.00;;;;;14.54;70.95;100878.19;2099956;28;46482;-61
2023/01/02 04:45:33;;;;;;;;;0.00;0.00;;;;;14.53;71.67;100878.25;2104723;28;45568;-61
2023/01/02 04:46:34;;;;;;;;;0.00;0.00;;;;;14.52;70.69;100882.72;2104752;28;46270;-62
2023/01/02 04:47:34;;;;;;;;;0.00;0.00;;;;;14.51;71.09;100888.13;2097401;28;46447;-61
2023/01/02 04:48:34;;;;;;;;;0.00;0.00;;;;;14.50;70.93;100886.38;2096836;28;46274;-62
2023/01/02 04:49:35;;;;;;;;;0.00;0.00;;;;;14.49;71.29;100895.31;2095228;28;46427;-61
2023/01/02 04:50:35;;;;;;;;;1.00;1.00;;;;;14.49;71.23;100889.97;2087444;28;46572;-63
2023/01/02 04:51:35;;;;;;;;;0.00;0.00;;;;;14.49;71.30;100892.66;2097444;28;46089;-61
2023/01/02 04:52:35;;;;;;;;;0.00;0.00;;;;;14.50;71.63;100891.72;2102095;28;46556;-62
2023/01/02 04:53:36;;;;;;;;;0.00;0.00;;;;;14.51;71.30;100898.78;2105159;28;46463;-62
2023/01/02 04:54:36;;;;;;;;;0.00;0.00;;;;;14.50;71.58;100905.94;2104907;28;46877;-62
2023/01/02 04:55:37;;;;;;;;;0.00;0.00;;;;;14.51;71.64;100904.13;2101783;28;46147;-61
2023/01/02 04:56:38;;;;;;;;;0.00;0.00;;;;;14.50;71.27;100911.28;2104867;28;45046;-62
2023/01/02 04:57:38;;;;;;;;;0.00;0.00;;;;;14.49;71.68;100904.19;2104958;28;46377;-61
2023/01/02 04:58:39;;;;;;;;;0.00;0.00;;;;;14.51;71.78;100913.03;2104215;28;46211;-61
2023/01/02 04:59:40;;;;;;;;;0.00;0.00;;;;;14.50;71.41;100907.75;2105852;28;46794;-61
2023/01/02 05:00:40;;;;;;;;;0.00;0.00;;;;;14.49;71.53;100914.88;2104830;28;46274;-62
2023/01/02 05:01:40;;;;;;;;;0.00;0.00;;;;;14.49;71.50;100914.88;2105142;28;46682;-62
2023/01/02 05:02:41;;;;;;;;;0.00;0.00;;;;;14.49;71.46;100920.22;2088147;28;46451;-61
2023/01/02 05:03:43;;;;;;;;;0.00;0.00;;;;;14.49;72.03;100914.00;2088228;28;46566;-61
2023/01/02 05:04:44;;;;;;;;;0.00;0.00;;;;;14.49;72.27;100916.69;2096206;28;46263;-62
2023/01/02 05:05:44;;;;;;;;;0.00;0.00;;;;;14.49;71.98;100914.88;2111070;27;46317;-62
2023/01/02 05:06:44;;;;;;;;;0.00;0.00;;;;;14.49;71.96;100920.22;2111012;27;46430;-63